sensor_id;sensor_type;location;lat;lon;timestamp;P1;durP1;ratioP1;P2;durP2;ratioP2
7971;SDS011;4031;49.758;6.120;2023-03-30T00:01:28;5.13;;;2.20;;
7971;SDS011;4031;49.758;6.120;2023-03-30T00:03:54;3.80;;;2.60;;
7971;SDS011;4031;49.758;6.120;2023-03-30T00:06:20;7.00;;;2.33;;
7971;SDS011;4031;49.758;6.120;2023-03-30T00:08:50;7.20;;;3.20;;
7971;SDS011;4031;49.758;6.120;2023-03-30T00:11:21;5.83;;;2.53;;
7971;SDS011;4031;49.758;6.120;2023-03-30T00:13:47;4.67;;;2.10;;
7971;SDS011;4031;49.758;6.120;2023-03-30T00:16:14;5.47;;;2.50;;
7971;SDS011;4031;49.758;6.120;2023-03-30T00:18:41;8.27;;;2.57;;
7971;SDS011;4031;49.758;6.120;2023-03-30T00:21:09;4.37;;;2.07;;
7971;SDS011;4031;49.758;6.120;2023-03-30T00:23:36;2.70;;;1.87;;
7971;SDS011;4031;49.758;6.120;2023-03-30T00:26:02;3.23;;;1.93;;
7971;SDS011;4031;49.758;6.120;2023-03-30T00:28:29;3.30;;;2.20;;
7971;SDS011;4031;49.758;6.120;2023-03-30T00:30:55;3.80;;;2.03;;
7971;SDS011;4031;49.758;6.120;2023-03-30T00:33:21;4.60;;;2.20;;
7971;SDS011;4031;49.758;6.120;2023-03-30T00:35:53;6.80;;;2.40;;
7971;SDS011;4031;49.758;6.120;2023-03-30T00:38:22;5.90;;;1.57;;
7971;SDS011;4031;49.758;6.120;2023-03-30T00:40:55;4.70;;;1.90;;
7971;SDS011;4031;49.758;6.120;2023-03-30T00:43:23;5.13;;;1.97;;
7971;SDS011;4031;49.758;6.120;2023-03-30T00:45:50;4.93;;;1.70;;
7971;SDS011;4031;49.758;6.120;2023-03-30T00:50:57;4.70;;;2.30;;
7971;SDS011;4031;49.758;6.120;2023-03-30T00:53:37;2.33;;;1.67;;
7971;SDS011;4031;49.758;6.120;2023-03-30T00:56:10;2.43;;;1.70;;
7971;SDS011;4031;49.758;6.120;2023-03-30T00:58:41;4.93;;;2.37;;
7971;SDS011;4031;49.758;6.120;2023-03-30T01:01:09;7.03;;;1.60;;
7971;SDS011;4031;49.758;6.120;2023-03-30T01:03:41;2.43;;;1.63;;
7971;SDS011;4031;49.758;6.120;2023-03-30T01:06:12;5.57;;;2.27;;
7971;SDS011;4031;49.758;6.120;2023-03-30T01:08:41;4.63;;;1.83;;
7971;SDS011;4031;49.758;6.120;2023-03-30T01:11:09;1.77;;;1.60;;
7971;SDS011;4031;49.758;6.120;2023-03-30T01:13:36;3.03;;;2.40;;
7971;SDS011;4031;49.758;6.120;2023-03-30T01:33:44;5.03;;;1.63;;
7971;SDS011;4031;49.758;6.120;2023-03-30T01:36:38;1.50;;;1.40;;
7971;SDS011;4031;49.758;6.120;2023-03-30T01:39:40;3.10;;;2.20;;
7971;SDS011;4031;49.758;6.120;2023-03-30T01:42:20;7.50;;;2.00;;
7971;SDS011;4031;49.758;6.120;2023-03-30T01:45:29;4.10;;;2.33;;
7971;SDS011;4031;49.758;6.120;2023-03-30T01:48:09;7.43;;;2.60;;
7971;SDS011;4031;49.758;6.120;2023-03-30T01:51:22;2.47;;;1.83;;
7971;SDS011;4031;49.758;6.120;2023-03-30T01:53:48;6.70;;;3.40;;
7971;SDS011;4031;49.758;6.120;2023-03-30T01:56:27;2.83;;;1.90;;
7971;SDS011;4031;49.758;6.120;2023-03-30T01:59:10;5.57;;;2.80;;
7971;SDS011;4031;49.758;6.120;2023-03-30T02:01:44;10.17;;;3.00;;
7971;SDS011;4031;49.758;6.120;2023-03-30T02:04:14;7.87;;;2.20;;
7971;SDS011;4031;49.758;6.120;2023-03-30T02:06:45;3.83;;;2.67;;
7971;SDS011;4031;49.758;6.120;2023-03-30T02:09:18;3.87;;;2.70;;
7971;SDS011;4031;49.758;6.120;2023-03-30T02:11:47;2.80;;;2.27;;
7971;SDS011;4031;49.758;6.120;2023-03-30T02:14:16;7.00;;;2.63;;
7971;SDS011;4031;49.758;6.120;2023-03-30T02:16:46;6.07;;;2.77;;
7971;SDS011;4031;49.758;6.120;2023-03-30T02:19:14;4.70;;;3.27;;
7971;SDS011;4031;49.758;6.120;2023-03-30T02:21:41;4.30;;;2.50;;
7971;SDS011;4031;49.758;6.120;2023-03-30T02:24:10;6.20;;;2.67;;
7971;SDS011;4031;49.758;6.120;2023-03-30T02:26:43;10.00;;;2.60;;
7971;SDS011;4031;49.758;6.120;2023-03-30T02:29:14;3.30;;;2.53;;
7971;SDS011;4031;49.758;6.120;2023-03-30T02:31:42;5.60;;;2.40;;
7971;SDS011;4031;49.758;6.120;2023-03-30T02:42:33;3.50;;;2.43;;
7971;SDS011;4031;49.758;6.120;2023-03-30T02:53:46;8.53;;;2.83;;
7971;SDS011;4031;49.758;6.120;2023-03-30T02:59:12;5.10;;;2.77;;
7971;SDS011;4031;49.758;6.120;2023-03-30T03:01:46;12.50;;;7.67;;
7971;SDS011;4031;49.758;6.120;2023-03-30T03:04:25;3.10;;;2.80;;
7971;SDS011;4031;49.758;6.120;2023-03-30T03:06:53;4.63;;;3.23;;
7971;SDS011;4031;49.758;6.120;2023-03-30T03:09:20;4.00;;;2.53;;
7971;SDS011;4031;49.758;6.120;2023-03-30T03:11:49;4.50;;;2.57;;
7971;SDS011;4031;49.758;6.120;2023-03-30T03:14:16;4.30;;;2.83;;
7971;SDS011;4031;49.758;6.120;2023-03-30T03:16:42;5.60;;;2.87;;
7971;SDS011;4031;49.758;6.120;2023-03-30T03:19:08;6.23;;;2.60;;
7971;SDS011;4031;49.758;6.120;2023-03-30T03:21:34;6.23;;;2.70;;
7971;SDS011;4031;49.758;6.120;2023-03-30T03:24:01;5.83;;;2.90;;
7971;SDS011;4031;49.758;6.120;2023-03-30T03:26:28;4.90;;;2.80;;
7971;SDS011;4031;49.758;6.120;2023-03-30T03:28:54;9.40;;;3.50;;
7971;SDS011;4031;49.758;6.120;2023-03-30T03:31:20;3.33;;;2.73;;
7971;SDS011;4031;49.758;6.120;2023-03-30T03:33:46;5.30;;;3.37;;
7971;SDS011;4031;49.758;6.120;2023-03-30T03:36:11;4.63;;;2.33;;
7971;SDS011;4031;49.758;6.120;2023-03-30T03:38:37;6.63;;;3.37;;
7971;SDS011;4031;49.758;6.120;2023-03-30T03:41:03;2.90;;;2.63;;
7971;SDS011;4031;49.758;6.120;2023-03-30T03:43:29;5.80;;;2.43;;
7971;SDS011;4031;49.758;6.120;2023-03-30T03:45:55;5.97;;;2.60;;
7971;SDS011;4031;49.758;6.120;2023-03-30T03:48:21;5.57;;;2.33;;
7971;SDS011;4031;49.758;6.120;2023-03-30T03:50:52;3.40;;;1.70;;
7971;SDS011;4031;49.758;6.120;2023-03-30T03:53:20;4.60;;;2.10;;
7971;SDS011;4031;49.758;6.120;2023-03-30T03:55:48;6.60;;;2.50;;
7971;SDS011;4031;49.758;6.120;2023-03-30T03:58:14;8.20;;;3.43;;
7971;SDS011;4031;49.758;6.120;2023-03-30T04:00:40;6.63;;;2.90;;
7971;SDS011;4031;49.758;6.120;2023-03-30T04:03:06;6.03;;;2.70;;
7971;SDS011;4031;49.758;6.120;2023-03-30T04:05:33;5.50;;;3.10;;
7971;SDS011;4031;49.758;6.120;2023-03-30T04:07:59;8.20;;;3.13;;
7971;SDS011;4031;49.758;6.120;2023-03-30T04:10:25;4.70;;;3.20;;
7971;SDS011;4031;49.758;6.120;2023-03-30T04:12:53;4.57;;;2.57;;
7971;SDS011;4031;49.758;6.120;2023-03-30T04:15:21;12.43;;;3.77;;
7971;SDS011;4031;49.758;6.120;2023-03-30T04:17:47;4.30;;;2.10;;
7971;SDS011;4031;49.758;6.120;2023-03-30T04:20:22;6.20;;;3.07;;
7971;SDS011;4031;49.758;6.120;2023-03-30T04:22:50;4.30;;;2.13;;
7971;SDS011;4031;49.758;6.120;2023-03-30T04:25:17;4.97;;;2.40;;
7971;SDS011;4031;49.758;6.120;2023-03-30T04:27:50;3.23;;;2.13;;
7971;SDS011;4031;49.758;6.120;2023-03-30T04:30:17;3.60;;;2.60;;
7971;SDS011;4031;49.758;6.120;2023-03-30T04:32:44;4.60;;;2.30;;
7971;SDS011;4031;49.758;6.120;2023-03-30T04:35:18;3.23;;;1.87;;
7971;SDS011;4031;49.758;6.120;2023-03-30T04:37:45;4.33;;;2.23;;
7971;SDS011;4031;49.758;6.120;2023-03-30T04:40:11;3.13;;;1.43;;
7971;SDS011;4031;49.758;6.120;2023-03-30T04:42:37;3.00;;;1.90;;
7971;SDS011;4031;49.758;6.120;2023-03-30T04:45:04;2.90;;;2.00;;
7971;SDS011;4031;49.758;6.120;2023-03-30T04:47:32;4.10;;;1.70;;
7971;SDS011;4031;49.758;6.120;2023-03-30T04:49:59;12.20;;;2.40;;
7971;SDS011;4031;49.758;6.120;2023-03-30T04:52:25;2.83;;;1.80;;
7971;SDS011;4031;49.758;6.120;2023-03-30T04:54:52;3.00;;;2.00;;
7971;SDS011;4031;49.758;6.120;2023-03-30T04:57:17;6.90;;;2.10;;
7971;SDS011;4031;49.758;6.120;2023-03-30T04:59:44;3.77;;;2.37;;
7971;SDS011;4031;49.758;6.120;2023-03-30T05:02:10;2.07;;;1.70;;
7971;SDS011;4031;49.758;6.120;2023-03-30T05:04:38;7.60;;;2.43;;
7971;SDS011;4031;49.758;6.120;2023-03-30T05:07:04;3.37;;;3.17;;
7971;SDS011;4031;49.758;6.120;2023-03-30T05:09:31;2.77;;;1.60;;
7971;SDS011;4031;49.758;6.120;2023-03-30T05:11:57;2.97;;;2.30;;
7971;SDS011;4031;49.758;6.120;2023-03-30T05:14:22;10.77;;;2.37;;
7971;SDS011;4031;49.758;6.120;2023-03-30T05:16:48;6.03;;;2.27;;
7971;SDS011;4031;49.758;6.120;2023-03-30T05:19:14;5.43;;;3.17;;
7971;SDS011;4031;49.758;6.120;2023-03-30T05:21:40;5.13;;;2.00;;
7971;SDS011;4031;49.758;6.120;2023-03-30T05:24:06;5.03;;;3.00;;
7971;SDS011;4031;49.758;6.120;2023-03-30T05:26:31;6.80;;;2.30;;
7971;SDS011;4031;49.758;6.120;2023-03-30T05:28:58;5.47;;;2.47;;
7971;SDS011;4031;49.758;6.120;2023-03-30T05:31:24;2.63;;;2.43;;
7971;SDS011;4031;49.758;6.120;2023-03-30T05:33:49;4.70;;;2.33;;
7971;SDS011;4031;49.758;6.120;2023-03-30T05:36:16;2.20;;;2.00;;
7971;SDS011;4031;49.758;6.120;2023-03-30T05:38:42;4.47;;;2.30;;
7971;SDS011;4031;49.758;6.120;2023-03-30T05:41:08;8.80;;;2.20;;
7971;SDS011;4031;49.758;6.120;2023-03-30T05:43:34;3.87;;;2.40;;
7971;SDS011;4031;49.758;6.120;2023-03-30T05:46:00;2.07;;;1.70;;
7971;SDS011;4031;49.758;6.120;2023-03-30T05:48:27;6.67;;;2.30;;
7971;SDS011;4031;49.758;6.120;2023-03-30T05:50:54;3.17;;;1.73;;
7971;SDS011;4031;49.758;6.120;2023-03-30T05:53:21;8.00;;;2.83;;
7971;SDS011;4031;49.758;6.120;2023-03-30T05:55:47;4.50;;;2.23;;
7971;SDS011;4031;49.758;6.120;2023-03-30T05:58:14;7.20;;;2.57;;
7971;SDS011;4031;49.758;6.120;2023-03-30T06:00:42;4.40;;;1.97;;
7971;SDS011;4031;49.758;6.120;2023-03-30T06:03:09;7.70;;;2.10;;
7971;SDS011;4031;49.758;6.120;2023-03-30T06:05:36;3.37;;;2.00;;
7971;SDS011;4031;49.758;6.120;2023-03-30T06:08:07;1.80;;;1.50;;
7971;SDS011;4031;49.758;6.120;2023-03-30T06:10:34;3.40;;;2.47;;
7971;SDS011;4031;49.758;6.120;2023-03-30T06:13:01;4.10;;;2.43;;
7971;SDS011;4031;49.758;6.120;2023-03-30T06:15:27;2.57;;;2.13;;
7971;SDS011;4031;49.758;6.120;2023-03-30T06:17:53;3.40;;;2.43;;
7971;SDS011;4031;49.758;6.120;2023-03-30T06:20:19;4.60;;;3.70;;
7971;SDS011;4031;49.758;6.120;2023-03-30T06:22:46;6.33;;;2.50;;
7971;SDS011;4031;49.758;6.120;2023-03-30T06:25:12;2.77;;;2.10;;
7971;SDS011;4031;49.758;6.120;2023-03-30T06:27:38;7.87;;;3.30;;
7971;SDS011;4031;49.758;6.120;2023-03-30T06:30:04;5.20;;;2.60;;
7971;SDS011;4031;49.758;6.120;2023-03-30T06:32:33;3.83;;;2.53;;
7971;SDS011;4031;49.758;6.120;2023-03-30T06:35:01;7.53;;;2.43;;
7971;SDS011;4031;49.758;6.120;2023-03-30T06:37:29;3.90;;;2.17;;
7971;SDS011;4031;49.758;6.120;2023-03-30T06:40:00;7.00;;;2.70;;
7971;SDS011;4031;49.758;6.120;2023-03-30T06:42:32;4.80;;;3.10;;
7971;SDS011;4031;49.758;6.120;2023-03-30T06:44:58;2.00;;;1.90;;
7971;SDS011;4031;49.758;6.120;2023-03-30T06:47:24;5.60;;;2.80;;
7971;SDS011;4031;49.758;6.120;2023-03-30T06:49:50;5.93;;;2.90;;
7971;SDS011;4031;49.758;6.120;2023-03-30T06:52:15;7.73;;;2.90;;
7971;SDS011;4031;49.758;6.120;2023-03-30T06:54:41;6.87;;;2.90;;
7971;SDS011;4031;49.758;6.120;2023-03-30T06:57:07;4.27;;;2.10;;
7971;SDS011;4031;49.758;6.120;2023-03-30T06:59:33;4.13;;;2.27;;
7971;SDS011;4031;49.758;6.120;2023-03-30T07:01:59;2.70;;;2.27;;
7971;SDS011;4031;49.758;6.120;2023-03-30T07:04:25;4.63;;;2.40;;
7971;SDS011;4031;49.758;6.120;2023-03-30T07:06:51;5.20;;;2.93;;
7971;SDS011;4031;49.758;6.120;2023-03-30T07:09:21;4.43;;;2.60;;
7971;SDS011;4031;49.758;6.120;2023-03-30T07:11:50;1.97;;;1.77;;
7971;SDS011;4031;49.758;6.120;2023-03-30T07:14:17;4.10;;;2.40;;
7971;SDS011;4031;49.758;6.120;2023-03-30T07:16:43;4.43;;;2.20;;
7971;SDS011;4031;49.758;6.120;2023-03-30T07:19:09;3.03;;;2.30;;
7971;SDS011;4031;49.758;6.120;2023-03-30T07:21:35;3.70;;;2.20;;
7971;SDS011;4031;49.758;6.120;2023-03-30T07:24:01;3.20;;;2.20;;
7971;SDS011;4031;49.758;6.120;2023-03-30T07:26:27;2.50;;;2.30;;
7971;SDS011;4031;49.758;6.120;2023-03-30T07:28:54;2.50;;;1.70;;
7971;SDS011;4031;49.758;6.120;2023-03-30T07:31:21;6.23;;;2.63;;
7971;SDS011;4031;49.758;6.120;2023-03-30T07:33:48;4.20;;;2.20;;
7971;SDS011;4031;49.758;6.120;2023-03-30T07:36:14;4.20;;;2.10;;
7971;SDS011;4031;49.758;6.120;2023-03-30T07:38:40;5.20;;;2.20;;
7971;SDS011;4031;49.758;6.120;2023-03-30T07:41:10;4.63;;;2.60;;
7971;SDS011;4031;49.758;6.120;2023-03-30T07:43:38;5.20;;;1.97;;
7971;SDS011;4031;49.758;6.120;2023-03-30T07:46:07;4.60;;;2.23;;
7971;SDS011;4031;49.758;6.120;2023-03-30T07:48:35;4.70;;;1.90;;
7971;SDS011;4031;49.758;6.120;2023-03-30T07:51:03;4.30;;;2.20;;
7971;SDS011;4031;49.758;6.120;2023-03-30T07:53:31;3.10;;;2.10;;
7971;SDS011;4031;49.758;6.120;2023-03-30T07:55:57;5.87;;;2.57;;
7971;SDS011;4031;49.758;6.120;2023-03-30T07:58:23;2.60;;;2.00;;
7971;SDS011;4031;49.758;6.120;2023-03-30T08:00:50;3.83;;;1.90;;
7971;SDS011;4031;49.758;6.120;2023-03-30T08:03:17;2.80;;;1.90;;
7971;SDS011;4031;49.758;6.120;2023-03-30T08:05:57;4.63;;;2.23;;
7971;SDS011;4031;49.758;6.120;2023-03-30T08:08:27;3.00;;;2.17;;
7971;SDS011;4031;49.758;6.120;2023-03-30T08:10:54;2.83;;;2.47;;
7971;SDS011;4031;49.758;6.120;2023-03-30T08:13:20;4.43;;;1.93;;
7971;SDS011;4031;49.758;6.120;2023-03-30T08:15:46;6.47;;;2.20;;
7971;SDS011;4031;49.758;6.120;2023-03-30T08:18:12;5.63;;;2.13;;
7971;SDS011;4031;49.758;6.120;2023-03-30T08:20:39;3.70;;;1.77;;
7971;SDS011;4031;49.758;6.120;2023-03-30T08:23:10;4.07;;;2.03;;
7971;SDS011;4031;49.758;6.120;2023-03-30T08:25:36;3.60;;;1.67;;
7971;SDS011;4031;49.758;6.120;2023-03-30T08:28:02;2.77;;;2.37;;
7971;SDS011;4031;49.758;6.120;2023-03-30T08:30:30;2.90;;;2.00;;
7971;SDS011;4031;49.758;6.120;2023-03-30T08:32:56;3.37;;;2.00;;
7971;SDS011;4031;49.758;6.120;2023-03-30T08:35:22;5.07;;;2.13;;
7971;SDS011;4031;49.758;6.120;2023-03-30T08:37:48;3.03;;;1.33;;
7971;SDS011;4031;49.758;6.120;2023-03-30T08:40:15;5.00;;;1.40;;
7971;SDS011;4031;49.758;6.120;2023-03-30T08:42:54;2.03;;;1.73;;
7971;SDS011;4031;49.758;6.120;2023-03-30T08:45:42;2.60;;;1.53;;
7971;SDS011;4031;49.758;6.120;2023-03-30T08:48:18;6.00;;;1.67;;
7971;SDS011;4031;49.758;6.120;2023-03-30T08:50:58;6.53;;;2.03;;
7971;SDS011;4031;49.758;6.120;2023-03-30T08:54:11;1.60;;;1.10;;
7971;SDS011;4031;49.758;6.120;2023-03-30T08:57:30;4.70;;;1.90;;
7971;SDS011;4031;49.758;6.120;2023-03-30T08:59:51;2.70;;;1.70;;
7971;SDS011;4031;49.758;6.120;2023-03-30T09:02:45;2.83;;;1.30;;
7971;SDS011;4031;49.758;6.120;2023-03-30T09:05:22;3.10;;;1.67;;
7971;SDS011;4031;49.758;6.120;2023-03-30T09:10:48;2.50;;;1.30;;
7971;SDS011;4031;49.758;6.120;2023-03-30T09:13:21;1.03;;;0.93;;
7971;SDS011;4031;49.758;6.120;2023-03-30T09:15:56;2.53;;;1.40;;
7971;SDS011;4031;49.758;6.120;2023-03-30T09:18:46;6.13;;;2.37;;
7971;SDS011;4031;49.758;6.120;2023-03-30T09:21:20;2.10;;;1.03;;
7971;SDS011;4031;49.758;6.120;2023-03-30T09:23:47;6.33;;;1.70;;
7971;SDS011;4031;49.758;6.120;2023-03-30T09:26:16;4.17;;;1.73;;
7971;SDS011;4031;49.758;6.120;2023-03-30T09:31:39;2.20;;;1.20;;
7971;SDS011;4031;49.758;6.120;2023-03-30T09:39:19;1.63;;;1.30;;
7971;SDS011;4031;49.758;6.120;2023-03-30T09:50:06;5.30;;;1.47;;
7971;SDS011;4031;49.758;6.120;2023-03-30T09:53:06;4.30;;;1.17;;
7971;SDS011;4031;49.758;6.120;2023-03-30T09:55:54;3.20;;;1.23;;
7971;SDS011;4031;49.758;6.120;2023-03-30T09:58:32;8.47;;;1.53;;
7971;SDS011;4031;49.758;6.120;2023-03-30T10:01:08;1.73;;;1.00;;
7971;SDS011;4031;49.758;6.120;2023-03-30T10:03:37;2.53;;;1.10;;
7971;SDS011;4031;49.758;6.120;2023-03-30T10:08:52;1.83;;;1.03;;
7971;SDS011;4031;49.758;6.120;2023-03-30T10:11:35;2.93;;;1.10;;
7971;SDS011;4031;49.758;6.120;2023-03-30T10:14:08;7.60;;;1.37;;
7971;SDS011;4031;49.758;6.120;2023-03-30T10:16:53;2.30;;;1.07;;
7971;SDS011;4031;49.758;6.120;2023-03-30T10:19:20;2.50;;;1.23;;
7971;SDS011;4031;49.758;6.120;2023-03-30T10:21:47;3.93;;;1.50;;
7971;SDS011;4031;49.758;6.120;2023-03-30T10:26:57;2.87;;;0.90;;
7971;SDS011;4031;49.758;6.120;2023-03-30T10:29:37;3.80;;;1.10;;
7971;SDS011;4031;49.758;6.120;2023-03-30T10:32:10;5.30;;;1.33;;
7971;SDS011;4031;49.758;6.120;2023-03-30T10:34:52;3.03;;;1.10;;
7971;SDS011;4031;49.758;6.120;2023-03-30T10:39:59;1.03;;;0.93;;
7971;SDS011;4031;49.758;6.120;2023-03-30T10:42:29;2.73;;;0.60;;
7971;SDS011;4031;49.758;6.120;2023-03-30T10:44:58;2.20;;;0.90;;
7971;SDS011;4031;49.758;6.120;2023-03-30T10:47:48;2.57;;;0.90;;
7971;SDS011;4031;49.758;6.120;2023-03-30T10:50:52;3.60;;;1.00;;
7971;SDS011;4031;49.758;6.120;2023-03-30T11:02:16;1.73;;;0.90;;
7971;SDS011;4031;49.758;6.120;2023-03-30T11:05:21;1.17;;;0.87;;
7971;SDS011;4031;49.758;6.120;2023-03-30T11:08:01;3.30;;;1.20;;
7971;SDS011;4031;49.758;6.120;2023-03-30T11:10:37;2.03;;;0.77;;
7971;SDS011;4031;49.758;6.120;2023-03-30T11:13:10;2.30;;;1.33;;
7971;SDS011;4031;49.758;6.120;2023-03-30T11:15:50;2.07;;;1.20;;
7971;SDS011;4031;49.758;6.120;2023-03-30T11:18:28;4.10;;;1.63;;
7971;SDS011;4031;49.758;6.120;2023-03-30T11:21:08;1.87;;;1.10;;
7971;SDS011;4031;49.758;6.120;2023-03-30T11:24:03;5.43;;;1.20;;
7971;SDS011;4031;49.758;6.120;2023-03-30T11:35:19;1.80;;;0.73;;
7971;SDS011;4031;49.758;6.120;2023-03-30T11:38:18;5.37;;;1.50;;
7971;SDS011;4031;49.758;6.120;2023-03-30T11:40:51;3.70;;;1.07;;
7971;SDS011;4031;49.758;6.120;2023-03-30T11:43:23;17.47;;;1.50;;
7971;SDS011;4031;49.758;6.120;2023-03-30T12:00:21;4.00;;;1.10;;
7971;SDS011;4031;49.758;6.120;2023-03-30T12:05:34;3.23;;;1.07;;
7971;SDS011;4031;49.758;6.120;2023-03-30T12:11:23;2.27;;;1.30;;
7971;SDS011;4031;49.758;6.120;2023-03-30T12:20:18;1.77;;;0.80;;
7971;SDS011;4031;49.758;6.120;2023-03-30T12:23:01;2.80;;;1.10;;
7971;SDS011;4031;49.758;6.120;2023-03-30T12:28:23;1.00;;;0.67;;
7971;SDS011;4031;49.758;6.120;2023-03-30T12:30:57;3.57;;;0.87;;
7971;SDS011;4031;49.758;6.120;2023-03-30T12:38:55;5.10;;;0.97;;
7971;SDS011;4031;49.758;6.120;2023-03-30T12:41:26;1.67;;;1.40;;
7971;SDS011;4031;49.758;6.120;2023-03-30T12:52:06;5.53;;;2.90;;
7971;SDS011;4031;49.758;6.120;2023-03-30T12:54:52;3.20;;;1.30;;
7971;SDS011;4031;49.758;6.120;2023-03-30T13:12:57;5.70;;;1.23;;
7971;SDS011;4031;49.758;6.120;2023-03-30T13:21:23;3.90;;;1.13;;
7971;SDS011;4031;49.758;6.120;2023-03-30T13:27:00;5.30;;;1.73;;
7971;SDS011;4031;49.758;6.120;2023-03-30T13:32:32;3.17;;;0.83;;
7971;SDS011;4031;49.758;6.120;2023-03-30T13:35:43;5.97;;;1.43;;
7971;SDS011;4031;49.758;6.120;2023-03-30T13:41:05;3.73;;;1.33;;
7971;SDS011;4031;49.758;6.120;2023-03-30T13:46:32;2.53;;;1.33;;
7971;SDS011;4031;49.758;6.120;2023-03-30T13:52:17;4.37;;;1.40;;
7971;SDS011;4031;49.758;6.120;2023-03-30T13:54:51;1.23;;;0.90;;
7971;SDS011;4031;49.758;6.120;2023-03-30T13:57:26;3.90;;;1.20;;
7971;SDS011;4031;49.758;6.120;2023-03-30T14:00:20;3.20;;;0.70;;
7971;SDS011;4031;49.758;6.120;2023-03-30T14:08:38;1.93;;;0.70;;
7971;SDS011;4031;49.758;6.120;2023-03-30T14:13:47;2.43;;;1.23;;
7971;SDS011;4031;49.758;6.120;2023-03-30T14:16:23;2.33;;;0.83;;
7971;SDS011;4031;49.758;6.120;2023-03-30T14:18:52;1.67;;;0.70;;
7971;SDS011;4031;49.758;6.120;2023-03-30T14:22:08;2.90;;;0.93;;
7971;SDS011;4031;49.758;6.120;2023-03-30T14:24:40;3.27;;;0.80;;
7971;SDS011;4031;49.758;6.120;2023-03-30T14:27:31;3.70;;;0.97;;
7971;SDS011;4031;49.758;6.120;2023-03-30T14:30:05;3.80;;;1.70;;
7971;SDS011;4031;49.758;6.120;2023-03-30T14:32:47;2.83;;;0.80;;
7971;SDS011;4031;49.758;6.120;2023-03-30T14:35:37;2.03;;;0.70;;
7971;SDS011;4031;49.758;6.120;2023-03-30T14:38:13;1.40;;;0.80;;
7971;SDS011;4031;49.758;6.120;2023-03-30T14:40:46;2.57;;;0.80;;
7971;SDS011;4031;49.758;6.120;2023-03-30T14:43:18;1.67;;;0.90;;
7971;SDS011;4031;49.758;6.120;2023-03-30T14:45:52;2.60;;;0.90;;
7971;SDS011;4031;49.758;6.120;2023-03-30T14:48:23;3.33;;;1.10;;
7971;SDS011;4031;49.758;6.120;2023-03-30T14:50:55;2.80;;;0.83;;
7971;SDS011;4031;49.758;6.120;2023-03-30T14:53:24;3.57;;;1.23;;
7971;SDS011;4031;49.758;6.120;2023-03-30T14:55:53;3.27;;;0.93;;
7971;SDS011;4031;49.758;6.120;2023-03-30T14:58:22;2.97;;;0.93;;
7971;SDS011;4031;49.758;6.120;2023-03-30T15:00:54;3.87;;;0.80;;
7971;SDS011;4031;49.758;6.120;2023-03-30T15:03:23;4.97;;;0.90;;
7971;SDS011;4031;49.758;6.120;2023-03-30T15:05:54;2.40;;;0.90;;
7971;SDS011;4031;49.758;6.120;2023-03-30T15:08:23;3.47;;;1.23;;
7971;SDS011;4031;49.758;6.120;2023-03-30T15:10:58;4.80;;;1.40;;
7971;SDS011;4031;49.758;6.120;2023-03-30T15:13:31;2.53;;;1.17;;
7971;SDS011;4031;49.758;6.120;2023-03-30T15:16:04;4.50;;;1.00;;
7971;SDS011;4031;49.758;6.120;2023-03-30T15:18:31;5.67;;;1.93;;
7971;SDS011;4031;49.758;6.120;2023-03-30T15:20:58;2.30;;;0.90;;
7971;SDS011;4031;49.758;6.120;2023-03-30T15:23:25;3.27;;;1.17;;
7971;SDS011;4031;49.758;6.120;2023-03-30T15:26:00;2.60;;;1.30;;
7971;SDS011;4031;49.758;6.120;2023-03-30T15:28:29;5.23;;;1.40;;
7971;SDS011;4031;49.758;6.120;2023-03-30T15:31:01;2.20;;;1.13;;
7971;SDS011;4031;49.758;6.120;2023-03-30T15:33:31;3.00;;;1.33;;
7971;SDS011;4031;49.758;6.120;2023-03-30T15:36:02;5.23;;;1.67;;
7971;SDS011;4031;49.758;6.120;2023-03-30T15:38:59;2.20;;;1.13;;
7971;SDS011;4031;49.758;6.120;2023-03-30T15:44:15;9.73;;;2.17;;
7971;SDS011;4031;49.758;6.120;2023-03-30T15:46:43;4.43;;;1.93;;
7971;SDS011;4031;49.758;6.120;2023-03-30T15:49:13;2.00;;;1.20;;
7971;SDS011;4031;49.758;6.120;2023-03-30T15:51:44;6.73;;;1.40;;
7971;SDS011;4031;49.758;6.120;2023-03-30T15:54:16;6.47;;;1.30;;
7971;SDS011;4031;49.758;6.120;2023-03-30T15:59:51;4.20;;;1.20;;
7971;SDS011;4031;49.758;6.120;2023-03-30T16:04:57;3.60;;;1.53;;
7971;SDS011;4031;49.758;6.120;2023-03-30T16:07:25;2.77;;;1.33;;
7971;SDS011;4031;49.758;6.120;2023-03-30T16:09:50;2.70;;;1.40;;
7971;SDS011;4031;49.758;6.120;2023-03-30T16:12:17;2.10;;;1.10;;
7971;SDS011;4031;49.758;6.120;2023-03-30T16:14:46;3.63;;;1.20;;
7971;SDS011;4031;49.758;6.120;2023-03-30T16:17:13;3.50;;;0.80;;
7971;SDS011;4031;49.758;6.120;2023-03-30T16:19:39;3.17;;;1.03;;
7971;SDS011;4031;49.758;6.120;2023-03-30T16:22:09;4.07;;;0.97;;
7971;SDS011;4031;49.758;6.120;2023-03-30T16:24:36;4.43;;;1.70;;
7971;SDS011;4031;49.758;6.120;2023-03-30T16:27:03;4.47;;;1.00;;
7971;SDS011;4031;49.758;6.120;2023-03-30T16:29:29;4.40;;;1.03;;
7971;SDS011;4031;49.758;6.120;2023-03-30T16:31:56;3.77;;;1.33;;
7971;SDS011;4031;49.758;6.120;2023-03-30T16:34:23;3.40;;;1.30;;
7971;SDS011;4031;49.758;6.120;2023-03-30T16:36:49;4.27;;;0.93;;
7971;SDS011;4031;49.758;6.120;2023-03-30T16:39:24;3.77;;;1.30;;
7971;SDS011;4031;49.758;6.120;2023-03-30T16:41:52;6.07;;;1.13;;
7971;SDS011;4031;49.758;6.120;2023-03-30T16:44:20;4.50;;;1.60;;
7971;SDS011;4031;49.758;6.120;2023-03-30T16:46:47;3.00;;;1.73;;
7971;SDS011;4031;49.758;6.120;2023-03-30T16:49:15;5.10;;;1.77;;
7971;SDS011;4031;49.758;6.120;2023-03-30T16:51:45;6.20;;;1.20;;
7971;SDS011;4031;49.758;6.120;2023-03-30T16:54:11;5.23;;;1.37;;
7971;SDS011;4031;49.758;6.120;2023-03-30T16:56:37;3.20;;;1.93;;
7971;SDS011;4031;49.758;6.120;2023-03-30T16:59:04;4.53;;;1.70;;
7971;SDS011;4031;49.758;6.120;2023-03-30T17:01:30;3.93;;;1.10;;
7971;SDS011;4031;49.758;6.120;2023-03-30T17:03:56;4.47;;;1.80;;
7971;SDS011;4031;49.758;6.120;2023-03-30T17:06:22;3.33;;;1.03;;
7971;SDS011;4031;49.758;6.120;2023-03-30T17:08:48;5.00;;;1.40;;
7971;SDS011;4031;49.758;6.120;2023-03-30T17:11:15;4.57;;;1.80;;
7971;SDS011;4031;49.758;6.120;2023-03-30T17:13:42;3.93;;;1.37;;
7971;SDS011;4031;49.758;6.120;2023-03-30T17:16:11;7.33;;;1.77;;
7971;SDS011;4031;49.758;6.120;2023-03-30T17:18:38;3.70;;;1.20;;
7971;SDS011;4031;49.758;6.120;2023-03-30T17:21:05;1.77;;;0.70;;
7971;SDS011;4031;49.758;6.120;2023-03-30T17:23:33;2.50;;;0.87;;
7971;SDS011;4031;49.758;6.120;2023-03-30T17:25:59;0.90;;;0.70;;
7971;SDS011;4031;49.758;6.120;2023-03-30T17:28:27;2.87;;;0.73;;
7971;SDS011;4031;49.758;6.120;2023-03-30T17:30:58;1.63;;;0.70;;
7971;SDS011;4031;49.758;6.120;2023-03-30T17:33:30;1.23;;;0.97;;
7971;SDS011;4031;49.758;6.120;2023-03-30T17:38:37;5.13;;;0.77;;
7971;SDS011;4031;49.758;6.120;2023-03-30T17:41:03;1.13;;;0.67;;
7971;SDS011;4031;49.758;6.120;2023-03-30T17:43:30;1.87;;;0.70;;
7971;SDS011;4031;49.758;6.120;2023-03-30T17:45:55;1.33;;;0.70;;
7971;SDS011;4031;49.758;6.120;2023-03-30T17:48:21;3.43;;;1.00;;
7971;SDS011;4031;49.758;6.120;2023-03-30T17:50:48;1.90;;;0.90;;
7971;SDS011;4031;49.758;6.120;2023-03-30T17:53:15;2.93;;;0.90;;
7971;SDS011;4031;49.758;6.120;2023-03-30T17:55:43;0.90;;;0.60;;
7971;SDS011;4031;49.758;6.120;2023-03-30T17:58:15;1.70;;;0.60;;
7971;SDS011;4031;49.758;6.120;2023-03-30T18:00:48;1.20;;;0.70;;
7971;SDS011;4031;49.758;6.120;2023-03-30T18:03:16;1.40;;;0.60;;
7971;SDS011;4031;49.758;6.120;2023-03-30T18:05:46;2.30;;;0.77;;
7971;SDS011;4031;49.758;6.120;2023-03-30T18:08:14;1.70;;;0.90;;
7971;SDS011;4031;49.758;6.120;2023-03-30T18:10:43;0.90;;;0.63;;
7971;SDS011;4031;49.758;6.120;2023-03-30T18:13:16;2.60;;;0.93;;
7971;SDS011;4031;49.758;6.120;2023-03-30T18:15:44;5.70;;;1.53;;
7971;SDS011;4031;49.758;6.120;2023-03-30T18:18:14;3.30;;;1.13;;
7971;SDS011;4031;49.758;6.120;2023-03-30T18:20:55;0.73;;;0.73;;
7971;SDS011;4031;49.758;6.120;2023-03-30T18:23:26;1.60;;;0.70;;
7971;SDS011;4031;49.758;6.120;2023-03-30T18:25:52;4.37;;;1.20;;
7971;SDS011;4031;49.758;6.120;2023-03-30T18:28:19;4.50;;;1.47;;
7971;SDS011;4031;49.758;6.120;2023-03-30T18:30:47;3.23;;;1.23;;
7971;SDS011;4031;49.758;6.120;2023-03-30T18:33:14;1.97;;;1.03;;
7971;SDS011;4031;49.758;6.120;2023-03-30T18:35:41;4.80;;;1.20;;
7971;SDS011;4031;49.758;6.120;2023-03-30T18:38:09;1.50;;;1.00;;
7971;SDS011;4031;49.758;6.120;2023-03-30T18:40:37;1.10;;;1.00;;
7971;SDS011;4031;49.758;6.120;2023-03-30T18:43:11;1.80;;;0.80;;